sensor_id;sensor_type;location;lat;lon;timestamp;pressure;altitude;pressure_sealevel;temperature;humidity
79752;BME280;69234;47.446;21.636;2023-04-15T00:00:12;99684.22;;;7.88;82.13
79752;BME280;69234;47.446;21.636;2023-04-15T00:00:47;99683.22;;;7.89;82.12
79752;BME280;69234;47.446;21.636;2023-04-15T00:01:18;99686.03;;;7.88;81.69
79752;BME280;69234;47.446;21.636;2023-04-15T00:01:48;99682.53;;;7.87;81.99
79752;BME280;69234;47.446;21.636;2023-04-15T00:02:19;99685.19;;;7.87;82.27
79752;BME280;69234;47.446;21.636;2023-04-15T00:02:50;99690.66;;;7.85;81.81
79752;BME280;69234;47.446;21.636;2023-04-15T00:03:21;99690.53;;;7.87;82.09
79752;BME280;69234;47.446;21.636;2023-04-15T00:03:53;99691.66;;;7.84;82.19
79752;BME280;69234;47.446;21.636;2023-04-15T00:04:25;99696.00;;;7.85;82.24
79752;BME280;69234;47.446;21.636;2023-04-15T00:04:56;99691.38;;;7.88;81.81
79752;BME280;69234;47.446;21.636;2023-04-15T00:05:29;99687.13;;;7.85;81.82
79752;BME280;69234;47.446;21.636;2023-04-15T00:06:00;99689.69;;;7.86;82.62
79752;BME280;69234;47.446;21.636;2023-04-15T00:06:31;99686.56;;;7.81;82.55
79752;BME280;69234;47.446;21.636;2023-04-15T00:07:01;99694.47;;;7.83;82.13
79752;BME280;69234;47.446;21.636;2023-04-15T00:07:33;99688.97;;;7.84;81.95
79752;BME280;69234;47.446;21.636;2023-04-15T00:08:04;99691.38;;;7.88;82.49
79752;BME280;69234;47.446;21.636;2023-04-15T00:08:34;99693.06;;;7.89;81.94
79752;BME280;69234;47.446;21.636;2023-04-15T00:09:05;99694.16;;;7.86;81.97
79752;BME280;69234;47.446;21.636;2023-04-15T00:09:36;99696.00;;;7.85;82.48
79752;BME280;69234;47.446;21.636;2023-04-15T00:10:07;99694.06;;;7.88;82.19
79752;BME280;69234;47.446;21.636;2023-04-15T00:10:38;99693.91;;;7.89;82.19
79752;BME280;69234;47.446;21.636;2023-04-15T00:11:09;99697.44;;;7.90;81.80
79752;BME280;69234;47.446;21.636;2023-04-15T00:11:40;99695.63;;;7.90;82.08
79752;BME280;69234;47.446;21.636;2023-04-15T00:12:11;99690.53;;;7.87;82.34
79752;BME280;69234;47.446;21.636;2023-04-15T00:12:42;99700.09;;;7.90;82.24
79752;BME280;69234;47.446;21.636;2023-04-15T00:13:13;99707.19;;;7.91;82.27
79752;BME280;69234;47.446;21.636;2023-04-15T00:13:45;99699.41;;;7.88;82.18
79752;BME280;69234;47.446;21.636;2023-04-15T00:14:15;99694.06;;;7.88;82.43
79752;BME280;69234;47.446;21.636;2023-04-15T00:14:46;99700.84;;;7.92;82.59
79752;BME280;69234;47.446;21.636;2023-04-15T00:15:18;99699.00;;;7.92;82.52
79752;BME280;69234;47.446;21.636;2023-04-15T00:15:48;99705.19;;;7.93;83.19
79752;BME280;69234;47.446;21.636;2023-04-15T00:16:19;99705.19;;;7.93;83.06
79752;BME280;69234;47.446;21.636;2023-04-15T00:16:50;99704.25;;;7.94;82.62
79752;BME280;69234;47.446;21.636;2023-04-15T00:17:25;99700.84;;;7.92;83.04
79752;BME280;69234;47.446;21.636;2023-04-15T00:17:56;99700.84;;;7.92;82.94
79752;BME280;69234;47.446;21.636;2023-04-15T00:18:27;99700.97;;;7.90;82.27
79752;BME280;69234;47.446;21.636;2023-04-15T00:18:59;99699.25;;;7.89;82.58
79752;BME280;69234;47.446;21.636;2023-04-15T00:19:30;99698.31;;;7.90;82.42
79752;BME280;69234;47.446;21.636;2023-04-15T00:20:02;99708.03;;;7.91;82.48
79752;BME280;69234;47.446;21.636;2023-04-15T00:20:33;99698.41;;;7.89;82.63
79752;BME280;69234;47.446;21.636;2023-04-15T00:21:04;99708.59;;;7.95;82.26
79752;BME280;69234;47.446;21.636;2023-04-15T00:21:35;99700.44;;;7.96;82.38
79752;BME280;69234;47.446;21.636;2023-04-15T00:22:06;99696.81;;;7.97;82.54
79752;BME280;69234;47.446;21.636;2023-04-15T00:22:37;99706.50;;;7.98;82.46
79752;BME280;69234;47.446;21.636;2023-04-15T00:23:08;99699.34;;;7.99;82.10
79752;BME280;69234;47.446;21.636;2023-04-15T00:23:38;99704.56;;;8.00;81.97
79752;BME280;69234;47.446;21.636;2023-04-15T00:24:09;99703.69;;;8.00;81.98
79752;BME280;69234;47.446;21.636;2023-04-15T00:24:41;99700.19;;;7.99;82.13
79752;BME280;69234;47.446;21.636;2023-04-15T00:25:12;99697.91;;;7.95;81.67
79752;BME280;69234;47.446;21.636;2023-04-15T00:25:43;99699.34;;;7.99;81.96
79752;BME280;69234;47.446;21.636;2023-04-15T00:26:14;99700.06;;;8.01;82.15
79752;BME280;69234;47.446;21.636;2023-04-15T00:26:45;99708.19;;;7.99;82.21
79752;BME280;69234;47.446;21.636;2023-04-15T00:27:15;99695.97;;;7.97;82.10
79752;BME280;69234;47.446;21.636;2023-04-15T00:27:46;99698.34;;;8.00;82.02
79752;BME280;69234;47.446;21.636;2023-04-15T00:28:18;99702.75;;;8.01;81.40
79752;BME280;69234;47.446;21.636;2023-04-15T00:28:49;99697.38;;;8.01;82.42
79752;BME280;69234;47.446;21.636;2023-04-15T00:29:20;99705.16;;;8.04;82.01
79752;BME280;69234;47.446;21.636;2023-04-15T00:29:51;99698.94;;;8.03;82.07
79752;BME280;69234;47.446;21.636;2023-04-15T00:30:22;99697.13;;;8.04;82.43
79752;BME280;69234;47.446;21.636;2023-04-15T00:30:53;99705.00;;;8.05;82.05
79752;BME280;69234;47.446;21.636;2023-04-15T00:31:24;99705.16;;;8.04;81.36
79752;BME280;69234;47.446;21.636;2023-04-15T00:31:55;99696.66;;;7.99;81.05
79752;BME280;69234;47.446;21.636;2023-04-15T00:32:29;99701.16;;;7.98;80.99
79752;BME280;69234;47.446;21.636;2023-04-15T00:33:00;99702.75;;;8.01;81.64
79752;BME280;69234;47.446;21.636;2023-04-15T00:33:34;99696.53;;;8.00;81.03
79752;BME280;69234;47.446;21.636;2023-04-15T00:34:06;99697.13;;;8.04;81.47
79752;BME280;69234;47.446;21.636;2023-04-15T00:34:37;99691.19;;;8.00;81.45
79752;BME280;69234;47.446;21.636;2023-04-15T00:35:08;99705.16;;;8.04;81.43
79752;BME280;69234;47.446;21.636;2023-04-15T00:35:39;99697.81;;;8.06;81.31
79752;BME280;69234;47.446;21.636;2023-04-15T00:36:10;99692.31;;;7.98;81.42
79752;BME280;69234;47.446;21.636;2023-04-15T00:36:41;99692.75;;;8.03;81.46
79752;BME280;69234;47.446;21.636;2023-04-15T00:37:12;99705.84;;;8.06;81.65
79752;BME280;69234;47.446;21.636;2023-04-15T00:37:43;99697.13;;;8.04;82.00
79752;BME280;69234;47.446;21.636;2023-04-15T00:38:14;99698.09;;;8.03;81.73
79752;BME280;69234;47.446;21.636;2023-04-15T00:38:45;99692.75;;;8.03;82.19
79752;BME280;69234;47.446;21.636;2023-04-15T00:39:16;99700.75;;;8.03;82.15
79752;BME280;69234;47.446;21.636;2023-04-15T00:39:48;99696.66;;;7.99;82.34
79752;BME280;69234;47.446;21.636;2023-04-15T00:40:20;99705.28;;;8.02;81.90
79752;BME280;69234;47.446;21.636;2023-04-15T00:40:54;99697.38;;;8.01;81.64
79752;BME280;69234;47.446;21.636;2023-04-15T00:41:25;99701.75;;;8.02;82.18
79752;BME280;69234;47.446;21.636;2023-04-15T00:41:56;99699.06;;;8.02;81.76
79752;BME280;69234;47.446;21.636;2023-04-15T00:42:27;99691.06;;;8.02;81.43
79752;BME280;69234;47.446;21.636;2023-04-15T00:42:58;99702.59;;;8.02;81.24
79752;BME280;69234;47.446;21.636;2023-04-15T00:43:29;99705.16;;;8.04;81.28
79752;BME280;69234;47.446;21.636;2023-04-15T00:44:01;99699.81;;;8.04;81.02
79752;BME280;69234;47.446;21.636;2023-04-15T00:44:32;99693.72;;;8.02;81.58
79752;BME280;69234;47.446;21.636;2023-04-15T00:45:03;99699.06;;;8.02;80.95
79752;BME280;69234;47.446;21.636;2023-04-15T00:45:34;99703.31;;;8.04;80.70
79752;BME280;69234;47.446;21.636;2023-04-15T00:46:06;99700.75;;;8.03;81.11
79752;BME280;69234;47.446;21.636;2023-04-15T00:46:38;99696.13;;;8.05;80.91
79752;BME280;69234;47.446;21.636;2023-04-15T00:47:10;99705.16;;;8.04;80.87
79752;BME280;69234;47.446;21.636;2023-04-15T00:47:42;99702.75;;;8.01;81.45
79752;BME280;69234;47.446;21.636;2023-04-15T00:48:15;99702.75;;;8.01;81.50
79752;BME280;69234;47.446;21.636;2023-04-15T00:48:46;99704.16;;;8.05;81.44
79752;BME280;69234;47.446;21.636;2023-04-15T00:49:17;99697.81;;;8.06;82.03
79752;BME280;69234;47.446;21.636;2023-04-15T00:49:48;99699.66;;;8.05;81.32
79752;BME280;69234;47.446;21.636;2023-04-15T00:50:19;99699.66;;;8.05;81.65
79752;BME280;69234;47.446;21.636;2023-04-15T00:50:50;99692.63;;;8.04;81.60
79752;BME280;69234;47.446;21.636;2023-04-15T00:51:21;99700.75;;;8.03;81.21
79752;BME280;69234;47.446;21.636;2023-04-15T00:51:52;99697.97;;;8.04;81.49
79752;BME280;69234;47.446;21.636;2023-04-15T00:52:23;99689.09;;;8.04;81.11
79752;BME280;69234;47.446;21.636;2023-04-15T00:52:54;99694.47;;;8.04;80.84
79752;BME280;69234;47.446;21.636;2023-04-15T00:53:25;99692.63;;;8.04;81.14
79752;BME280;69234;47.446;21.636;2023-04-15T00:53:56;99693.47;;;8.05;80.57
79752;BME280;69234;47.446;21.636;2023-04-15T00:54:27;99689.47;;;7.99;80.86
79752;BME280;69234;47.446;21.636;2023-04-15T00:54:58;99688.97;;;8.05;81.28
79752;BME280;69234;47.446;21.636;2023-04-15T00:55:29;99683.75;;;8.04;80.83
79752;BME280;69234;47.446;21.636;2023-04-15T00:56:00;99692.38;;;8.07;81.12
79752;BME280;69234;47.446;21.636;2023-04-15T00:56:35;99689.69;;;8.07;80.83
79752;BME280;69234;47.446;21.636;2023-04-15T00:57:07;99692.22;;;8.09;80.83
79752;BME280;69234;47.446;21.636;2023-04-15T00:57:39;99693.06;;;8.09;81.03
79752;BME280;69234;47.446;21.636;2023-04-15T00:58:10;99689.69;;;8.07;80.35
79752;BME280;69234;47.446;21.636;2023-04-15T00:58:41;99691.50;;;8.07;80.78
79752;BME280;69234;47.446;21.636;2023-04-15T00:59:13;99691.63;;;8.05;80.27
79752;BME280;69234;47.446;21.636;2023-04-15T00:59:44;99694.91;;;8.09;80.50
79752;BME280;69234;47.446;21.636;2023-04-15T01:00:16;99684.84;;;8.01;80.91
79752;BME280;69234;47.446;21.636;2023-04-15T01:00:48;99691.06;;;8.02;81.11
79752;BME280;69234;47.446;21.636;2023-04-15T01:01:24;99689.22;;;8.02;80.72
79752;BME280;69234;47.446;21.636;2023-04-15T01:01:55;99686.53;;;8.02;81.16
79752;BME280;69234;47.446;21.636;2023-04-15T01:02:26;99691.91;;;8.02;81.02
79752;BME280;69234;47.446;21.636;2023-04-15T01:02:57;99686.69;;;8.01;80.43
79752;BME280;69234;47.446;21.636;2023-04-15T01:03:29;99687.38;;;8.03;81.60
79752;BME280;69234;47.446;21.636;2023-04-15T01:03:59;99680.34;;;8.02;81.25
79752;BME280;69234;47.446;21.636;2023-04-15T01:04:31;99686.44;;;8.04;81.69
79752;BME280;69234;47.446;21.636;2023-04-15T01:05:02;99690.91;;;8.03;81.79
79752;BME280;69234;47.446;21.636;2023-04-15T01:05:34;99695.41;;;8.03;81.59
79752;BME280;69234;47.446;21.636;2023-04-15T01:06:06;99684.03;;;8.01;81.36
79752;BME280;69234;47.446;21.636;2023-04-15T01:06:37;99691.78;;;8.04;81.03
79752;BME280;69234;47.446;21.636;2023-04-15T01:07:08;99686.44;;;8.04;81.41
79752;BME280;69234;47.446;21.636;2023-04-15T01:07:39;99691.78;;;8.04;81.04
79752;BME280;69234;47.446;21.636;2023-04-15T01:08:11;99690.91;;;8.03;81.64
79752;BME280;69234;47.446;21.636;2023-04-15T01:08:42;99697.66;;;7.98;81.62
79752;BME280;69234;47.446;21.636;2023-04-15T01:09:13;99691.56;;;7.96;81.65
79752;BME280;69234;47.446;21.636;2023-04-15T01:09:44;99689.16;;;7.93;81.35
79752;BME280;69234;47.446;21.636;2023-04-15T01:10:15;99697.19;;;7.93;81.52
79752;BME280;69234;47.446;21.636;2023-04-15T01:10:46;99692.81;;;7.92;81.46
79752;BME280;69234;47.446;21.636;2023-04-15T01:11:17;99697.31;;;7.91;81.37
79752;BME280;69234;47.446;21.636;2023-04-15T01:11:49;99696.47;;;7.91;81.57
79752;BME280;69234;47.446;21.636;2023-04-15T01:12:20;99688.56;;;7.89;81.94
79752;BME280;69234;47.446;21.636;2023-04-15T01:12:50;99697.44;;;7.90;82.07
79752;BME280;69234;47.446;21.636;2023-04-15T01:13:23;99690.41;;;7.89;81.95
79752;BME280;69234;47.446;21.636;2023-04-15T01:13:55;99693.59;;;7.82;82.32
79752;BME280;69234;47.446;21.636;2023-04-15T01:14:28;99692.88;;;7.80;82.08
79752;BME280;69234;47.446;21.636;2023-04-15T01:14:59;99696.41;;;7.81;82.25
79752;BME280;69234;47.446;21.636;2023-04-15T01:15:31;99694.84;;;7.78;82.54
79752;BME280;69234;47.446;21.636;2023-04-15T01:16:02;99697.50;;;7.78;82.88
79752;BME280;69234;47.446;21.636;2023-04-15T01:16:33;99696.06;;;7.74;82.79
79752;BME280;69234;47.446;21.636;2023-04-15T01:17:04;99697.91;;;7.74;82.45
79752;BME280;69234;47.446;21.636;2023-04-15T01:17:35;99691.25;;;7.68;82.67
79752;BME280;69234;47.446;21.636;2023-04-15T01:18:06;99702.78;;;7.69;82.82
79752;BME280;69234;47.446;21.636;2023-04-15T01:18:37;99693.06;;;7.68;82.82
79752;BME280;69234;47.446;21.636;2023-04-15T01:19:10;99694.91;;;7.67;83.07
79752;BME280;69234;47.446;21.636;2023-04-15T01:19:41;99695.63;;;7.69;83.18
79752;BME280;69234;47.446;21.636;2023-04-15T01:20:12;99701.34;;;7.65;82.77
79752;BME280;69234;47.446;21.636;2023-04-15T01:20:45;99696.84;;;7.65;83.01
79752;BME280;69234;47.446;21.636;2023-04-15T01:21:16;99694.31;;;7.63;83.22
79752;BME280;69234;47.446;21.636;2023-04-15T01:21:47;99703.91;;;7.66;83.08
79752;BME280;69234;47.446;21.636;2023-04-15T01:22:18;99695.88;;;7.66;82.92
79752;BME280;69234;47.446;21.636;2023-04-15T01:22:49;99706.44;;;7.68;83.15
79752;BME280;69234;47.446;21.636;2023-04-15T01:23:21;99704.16;;;7.63;82.89
79752;BME280;69234;47.446;21.636;2023-04-15T01:23:55;99699.91;;;7.60;82.80
79752;BME280;69234;47.446;21.636;2023-04-15T01:24:29;99700.75;;;7.61;83.25
79752;BME280;69234;47.446;21.636;2023-04-15T01:25:10;99695.91;;;7.55;83.51
79752;BME280;69234;47.446;21.636;2023-04-15T01:25:42;99703.09;;;7.54;83.59
79752;BME280;69234;47.446;21.636;2023-04-15T01:26:14;99702.25;;;7.54;83.54
79752;BME280;69234;47.446;21.636;2023-04-15T01:26:47;99700.41;;;7.54;83.32
79752;BME280;69234;47.446;21.636;2023-04-15T01:27:19;99700.31;;;7.56;82.75
79752;BME280;69234;47.446;21.636;2023-04-15T01:27:51;99704.66;;;7.57;82.88
79752;BME280;69234;47.446;21.636;2023-04-15T01:28:22;99697.63;;;7.56;83.33
79752;BME280;69234;47.446;21.636;2023-04-15T01:28:53;99702.25;;;7.54;83.14
79752;BME280;69234;47.446;21.636;2023-04-15T01:29:24;99700.56;;;7.53;82.75
79752;BME280;69234;47.446;21.636;2023-04-15T01:29:55;99701.53;;;7.52;83.16
79752;BME280;69234;47.446;21.636;2023-04-15T01:30:26;99702.50;;;7.51;83.05
79752;BME280;69234;47.446;21.636;2023-04-15T01:31:13;99711.25;;;7.53;82.71
79752;BME280;69234;47.446;21.636;2023-04-15T01:31:54;99700.41;;;7.54;82.62
79752;BME280;69234;47.446;21.636;2023-04-15T01:32:25;99696.44;;;7.49;82.85
79752;BME280;69234;47.446;21.636;2023-04-15T01:32:56;99695.31;;;7.51;82.52
79752;BME280;69234;47.446;21.636;2023-04-15T01:33:27;99697.41;;;7.48;82.50
79752;BME280;69234;47.446;21.636;2023-04-15T01:33:58;99705.16;;;7.51;83.09
79752;BME280;69234;47.446;21.636;2023-04-15T01:34:29;99700.94;;;7.48;83.15
79752;BME280;69234;47.446;21.636;2023-04-15T01:34:59;99697.41;;;7.48;82.46
79752;BME280;69234;47.446;21.636;2023-04-15T01:35:30;99695.59;;;7.48;82.67
79752;BME280;69234;47.446;21.636;2023-04-15T01:36:02;99694.97;;;7.45;82.52
79752;BME280;69234;47.446;21.636;2023-04-15T01:36:33;99703.72;;;7.47;82.69
79752;BME280;69234;47.446;21.636;2023-04-15T01:37:04;99697.53;;;7.46;82.20
79752;BME280;69234;47.446;21.636;2023-04-15T01:37:35;99695.84;;;7.45;82.44
79752;BME280;69234;47.446;21.636;2023-04-15T01:38:08;99701.44;;;7.42;82.55
79752;BME280;69234;47.446;21.636;2023-04-15T01:38:41;99699.72;;;7.41;82.74
79752;BME280;69234;47.446;21.636;2023-04-15T01:39:12;99686.53;;;7.39;82.56
79752;BME280;69234;47.446;21.636;2023-04-15T01:39:43;99696.94;;;7.43;82.27
79752;BME280;69234;47.446;21.636;2023-04-15T01:40:15;99692.00;;;7.38;82.56
79752;BME280;69234;47.446;21.636;2023-04-15T01:40:46;99690.28;;;7.37;82.99
79752;BME280;69234;47.446;21.636;2023-04-15T01:41:24;99690.19;;;7.38;82.96
79752;BME280;69234;47.446;21.636;2023-04-15T01:41:55;99700.84;;;7.38;82.77
79752;BME280;69234;47.446;21.636;2023-04-15T01:42:28;99693.78;;;7.37;82.97
79752;BME280;69234;47.446;21.636;2023-04-15T01:42:59;99690.44;;;7.35;82.69
79752;BME280;69234;47.446;21.636;2023-04-15T01:43:30;99681.94;;;7.30;82.88
79752;BME280;69234;47.446;21.636;2023-04-15T01:44:01;99690.94;;;7.29;83.42
79752;BME280;69234;47.446;21.636;2023-04-15T01:44:32;99696.00;;;7.32;82.65
79752;BME280;69234;47.446;21.636;2023-04-15T01:45:03;99686.44;;;7.30;82.98
79752;BME280;69234;47.446;21.636;2023-04-15T01:45:34;99693.50;;;7.31;82.90
79752;BME280;69234;47.446;21.636;2023-04-15T01:46:08;99692.59;;;7.30;82.76
79752;BME280;69234;47.446;21.636;2023-04-15T01:46:38;99685.00;;;7.26;82.77
79752;BME280;69234;47.446;21.636;2023-04-15T01:47:09;99691.19;;;7.26;82.74
79752;BME280;69234;47.446;21.636;2023-04-15T01:47:40;99692.16;;;7.25;82.52
79752;BME280;69234;47.446;21.636;2023-04-15T01:48:10;99698.19;;;7.27;83.29
79752;BME280;69234;47.446;21.636;2023-04-15T01:48:41;99687.06;;;7.22;82.94
79752;BME280;69234;47.446;21.636;2023-04-15T01:49:12;99694.22;;;7.22;82.65
79752;BME280;69234;47.446;21.636;2023-04-15T01:49:43;99690.13;;;7.18;82.89
79752;BME280;69234;47.446;21.636;2023-04-15T01:50:14;99691.94;;;7.17;83.32
79752;BME280;69234;47.446;21.636;2023-04-15T01:50:44;99697.28;;;7.17;83.50
79752;BME280;69234;47.446;21.636;2023-04-15T01:51:15;99697.28;;;7.17;82.92
79752;BME280;69234;47.446;21.636;2023-04-15T01:51:46;99697.28;;;7.17;83.09
79752;BME280;69234;47.446;21.636;2023-04-15T01:52:17;99695.31;;;7.19;83.25
79752;BME280;69234;47.446;21.636;2023-04-15T01:52:48;99697.41;;;7.15;83.21
79752;BME280;69234;47.446;21.636;2023-04-15T01:53:19;99706.50;;;7.13;83.34
79752;BME280;69234;47.446;21.636;2023-04-15T01:53:50;99707.72;;;7.09;84.09
79752;BME280;69234;47.446;21.636;2023-04-15T01:54:21;99704.22;;;7.08;83.29
79752;BME280;69234;47.446;21.636;2023-04-15T01:54:52;99707.03;;;7.07;83.93
79752;BME280;69234;47.446;21.636;2023-04-15T01:55:23;99701.69;;;7.07;83.94
79752;BME280;69234;47.446;21.636;2023-04-15T01:55:53;99702.63;;;7.06;83.84
79752;BME280;69234;47.446;21.636;2023-04-15T01:56:24;99700.50;;;7.00;83.40
79752;BME280;69234;47.446;21.636;2023-04-15T01:56:56;99708.38;;;7.01;83.92
79752;BME280;69234;47.446;21.636;2023-04-15T01:57:26;99706.78;;;6.99;83.99
79752;BME280;69234;47.446;21.636;2023-04-15T01:57:57;99682.06;;;6.85;83.60
79752;BME280;69234;47.446;21.636;2023-04-15T01:58:28;99701.59;;;6.97;83.65
79752;BME280;69234;47.446;21.636;2023-04-15T01:58:58;99702.44;;;6.98;83.51
79752;BME280;69234;47.446;21.636;2023-04-15T01:59:31;99704.34;;;6.96;83.45
79752;BME280;69234;47.446;21.636;2023-04-15T02:00:03;99711.66;;;6.94;83.94
79752;BME280;69234;47.446;21.636;2023-04-15T02:00:43;99703.75;;;6.92;83.95
79752;BME280;69234;47.446;21.636;2023-04-15T02:01:14;99705.72;;;6.90;83.75
79752;BME280;69234;47.446;21.636;2023-04-15T02:01:46;99702.06;;;6.91;84.17
79752;BME280;69234;47.446;21.636;2023-04-15T02:02:17;99708.50;;;6.88;83.68
79752;BME280;69234;47.446;21.636;2023-04-15T02:02:48;99706.81;;;6.87;84.05
79752;BME280;69234;47.446;21.636;2023-04-15T02:03:18;99706.81;;;6.87;84.08
79752;BME280;69234;47.446;21.636;2023-04-15T02:03:49;99707.91;;;6.85;84.02
79752;BME280;69234;47.446;21.636;2023-04-15T02:04:20;99706.22;;;6.84;84.20
79752;BME280;69234;47.446;21.636;2023-04-15T02:04:51;99708.28;;;6.80;84.82
79752;BME280;69234;47.446;21.636;2023-04-15T02:05:23;99705.84;;;6.77;84.77
79752;BME280;69234;47.446;21.636;2023-04-15T02:05:53;99706.94;;;6.75;84.63
79752;BME280;69234;47.446;21.636;2023-04-15T02:06:25;99708.06;;;6.72;84.45
79752;BME280;69234;47.446;21.636;2023-04-15T02:06:59;99704.91;;;6.67;84.85
79752;BME280;69234;47.446;21.636;2023-04-15T02:07:30;99712.66;;;6.70;85.46
79752;BME280;69234;47.446;21.636;2023-04-15T02:08:01;99710.00;;;6.70;85.01
79752;BME280;69234;47.446;21.636;2023-04-15T02:08:33;99710.84;;;6.71;85.13
79752;BME280;69234;47.446;21.636;2023-04-15T02:09:04;99710.00;;;6.70;85.47
79752;BME280;69234;47.446;21.636;2023-04-15T02:09:34;99707.31;;;6.70;85.29
79752;BME280;69234;47.446;21.636;2023-04-15T02:10:05;99709.75;;;6.73;85.17
79752;BME280;69234;47.446;21.636;2023-04-15T02:10:39;99709.75;;;6.73;85.33
79752;BME280;69234;47.446;21.636;2023-04-15T02:11:10;99703.44;;;6.74;85.00
79752;BME280;69234;47.446;21.636;2023-04-15T02:11:41;99708.66;;;6.76;85.23
79752;BME280;69234;47.446;21.636;2023-04-15T02:12:11;99708.66;;;6.76;85.22
79752;BME280;69234;47.446;21.636;2023-04-15T02:12:43;99708.53;;;6.77;84.70
79752;BME280;69234;47.446;21.636;2023-04-15T02:13:13;99706.69;;;6.78;85.38
79752;BME280;69234;47.446;21.636;2023-04-15T02:13:44;99705.84;;;6.77;85.41
79752;BME280;69234;47.446;21.636;2023-04-15T02:14:15;99704.88;;;6.78;85.24
79752;BME280;69234;47.446;21.636;2023-04-15T02:14:46;99707.69;;;6.77;85.32
79752;BME280;69234;47.446;21.636;2023-04-15T02:15:17;99706.69;;;6.78;85.13
79752;BME280;69234;47.446;21.636;2023-04-15T02:15:49;99700.50;;;6.77;85.10
79752;BME280;69234;47.446;21.636;2023-04-15T02:16:23;99708.38;;;6.79;85.29
79752;BME280;69234;47.446;21.636;2023-04-15T02:16:53;99702.19;;;6.78;85.31
79752;BME280;69234;47.446;21.636;2023-04-15T02:17:24;99703.94;;;6.79;84.81
79752;BME280;69234;47.446;21.636;2023-04-15T02:17:55;99698.81;;;6.76;84.93
79752;BME280;69234;47.446;21.636;2023-04-15T02:18:26;99704.88;;;6.78;85.04
79752;BME280;69234;47.446;21.636;2023-04-15T02:18:58;99705.13;;;6.75;85.02
79752;BME280;69234;47.446;21.636;2023-04-15T02:19:29;99699.66;;;6.77;85.19
79752;BME280;69234;47.446;21.636;2023-04-15T02:20:00;99701.25;;;6.79;84.81
79752;BME280;69234;47.446;21.636;2023-04-15T02:20:30;99691.53;;;6.78;84.58
79752;BME280;69234;47.446;21.636;2023-04-15T02:21:02;99699.28;;;6.81;84.85
79752;BME280;69234;47.446;21.636;2023-04-15T02:21:35;99688.25;;;6.75;85.10
79752;BME280;69234;47.446;21.636;2023-04-15T02:22:06;99688.16;;;6.76;85.18
79752;BME280;69234;47.446;21.636;2023-04-15T02:22:38;99691.53;;;6.78;84.73
79752;BME280;69234;47.446;21.636;2023-04-15T02:23:09;99696.03;;;6.78;85.10
79752;BME280;69234;47.446;21.636;2023-04-15T02:23:40;99691.78;;;6.75;84.69
79752;BME280;69234;47.446;21.636;2023-04-15T02:24:11;99692.66;;;6.76;84.83
79752;BME280;69234;47.446;21.636;2023-04-15T02:24:45;99692.66;;;6.76;84.85
79752;BME280;69234;47.446;21.636;2023-04-15T02:25:16;99691.66;;;6.77;85.27
79752;BME280;69234;47.446;21.636;2023-04-15T02:25:47;99690.56;;;6.79;84.87
79752;BME280;69234;47.446;21.636;2023-04-15T02:26:18;99687.31;;;6.76;84.56
79752;BME280;69234;47.446;21.636;2023-04-15T02:26:48;99688.16;;;6.76;85.22
79752;BME280;69234;47.446;21.636;2023-04-15T02:27:19;99689.25;;;6.74;84.78
79752;BME280;69234;47.446;21.636;2023-04-15T02:27:50;99691.78;;;6.75;84.47
79752;BME280;69234;47.446;21.636;2023-04-15T02:28:21;99686.44;;;6.75;84.85
79752;BME280;69234;47.446;21.636;2023-04-15T02:28:51;99691.66;;;6.77;85.10
79752;BME280;69234;47.446;21.636;2023-04-15T02:29:22;99685.47;;;6.76;84.84
79752;BME280;69234;47.446;21.636;2023-04-15T02:29:53;99695.66;;;6.82;84.79
79752;BME280;69234;47.446;21.636;2023-04-15T02:30:24;99688.63;;;6.81;84.66
79752;BME280;69234;47.446;21.636;2023-04-15T02:30:55;99685.94;;;6.81;84.76
79752;BME280;69234;47.446;21.636;2023-04-15T02:31:28;99684.50;;;6.77;84.54
79752;BME280;69234;47.446;21.636;2023-04-15T02:31:59;99688.75;;;6.80;84.51
79752;BME280;69234;47.446;21.636;2023-04-15T02:32:31;99687.03;;;6.79;84.94
79752;BME280;69234;47.446;21.636;2023-04-15T02:33:02;99687.66;;;6.82;84.58
79752;BME280;69234;47.446;21.636;2023-04-15T02:33:33;99698.22;;;6.84;84.61
79752;BME280;69234;47.446;21.636;2023-04-15T02:34:04;99696.38;;;6.84;84.90
79752;BME280;69234;47.446;21.636;2023-04-15T02:34:35;99690.34;;;6.82;83.93
79752;BME280;69234;47.446;21.636;2023-04-15T02:35:07;99697.47;;;6.82;84.13
79752;BME280;69234;47.446;21.636;2023-04-15T02:35:38;99693.94;;;6.81;83.99
79752;BME280;69234;47.446;21.636;2023-04-15T02:36:12;99693.00;;;6.82;84.07
79752;BME280;69234;47.446;21.636;2023-04-15T02:36:42;99694.94;;;6.80;84.21
79752;BME280;69234;47.446;21.636;2023-04-15T02:37:13;99690.69;;;6.78;84.01
79752;BME280;69234;47.446;21.636;2023-04-15T02:37:44;99693.00;;;6.82;84.04
79752;BME280;69234;47.446;21.636;2023-04-15T02:38:16;99690.44;;;6.81;84.10
79752;BME280;69234;47.446;21.636;2023-04-15T02:38:47;99684.13;;;6.82;84.42
79752;BME280;69234;47.446;21.636;2023-04-15T02:39:19;99690.19;;;6.84;83.96
79752;BME280;69234;47.446;21.636;2023-04-15T02:39:50;99692.03;;;6.83;83.74
79752;BME280;69234;47.446;21.636;2023-04-15T02:40:22;99691.03;;;6.84;83.90
79752;BME280;69234;47.446;21.636;2023-04-15T02:40:52;99690.94;;;6.86;83.49
79752;BME280;69234;47.446;21.636;2023-04-15T02:41:23;99694.69;;;6.83;84.46
79752;BME280;69234;47.446;21.636;2023-04-15T02:41:57;99687.66;;;6.82;84.22
79752;BME280;69234;47.446;21.636;2023-04-15T02:42:29;99691.19;;;6.83;84.08
79752;BME280;69234;47.446;21.636;2023-04-15T02:43:04;99679.41;;;6.74;84.35
79752;BME280;69234;47.446;21.636;2023-04-15T02:43:37;99689.84;;;6.77;84.62
79752;BME280;69234;47.446;21.636;2023-04-15T02:44:09;99689.59;;;6.80;84.15
79752;BME280;69234;47.446;21.636;2023-04-15T02:44:42;99691.06;;;6.73;83.75
79752;BME280;69234;47.446;21.636;2023-04-15T02:45:14;99678.81;;;6.71;83.83
79752;BME280;69234;47.446;21.636;2023-04-15T02:45:46;99674.81;;;6.65;83.86
79752;BME280;69234;47.446;21.636;2023-04-15T02:46:17;99684.28;;;6.69;84.10
79752;BME280;69234;47.446;21.636;2023-04-15T02:46:48;99688.50;;;6.72;83.92